sensor_id;sensor_type;location;lat;lon;timestamp;pressure;altitude;pressure_sealevel;temperature;humidity
77321;BME280;66382;52.252;8.780;2023-03-05T00:01:51;100958.19;;;4.91;64.01
77321;BME280;66382;52.252;8.780;2023-03-05T00:04:16;100930.69;;;4.72;64.70
77321;BME280;66382;52.252;8.780;2023-03-05T00:06:42;100918.78;;;4.67;64.30
77321;BME280;66382;52.252;8.780;2023-03-05T00:09:08;100944.91;;;4.91;64.23
77321;BME280;66382;52.252;8.780;2023-03-05T00:11:34;100944.22;;;4.89;64.30
77321;BME280;66382;52.252;8.780;2023-03-05T00:14:02;100928.97;;;4.81;64.57
77321;BME280;66382;52.252;8.780;2023-03-05T00:16:28;100943.25;;;4.90;63.63
77321;BME280;66382;52.252;8.780;2023-03-05T00:18:57;100941.13;;;4.84;64.78
77321;BME280;66382;52.252;8.780;2023-03-05T00:21:24;100902.16;;;4.55;64.48
77321;BME280;66382;52.252;8.780;2023-03-05T00:23:51;100945.91;;;4.80;64.13
77321;BME280;66382;52.252;8.780;2023-03-05T00:26:18;100931.50;;;4.73;64.86
77321;BME280;66382;52.252;8.780;2023-03-05T00:28:44;100948.28;;;4.83;64.20
77321;BME280;66382;52.252;8.780;2023-03-05T00:31:10;100935.00;;;4.83;64.47
77321;BME280;66382;52.252;8.780;2023-03-05T00:33:36;100936.53;;;4.86;64.75
77321;BME280;66382;52.252;8.780;2023-03-05T00:36:06;100932.63;;;4.80;64.37
77321;BME280;66382;52.252;8.780;2023-03-05T00:38:32;100913.63;;;4.75;64.83
77321;BME280;66382;52.252;8.780;2023-03-05T00:40:58;100914.16;;;4.79;64.88
77321;BME280;66382;52.252;8.780;2023-03-05T00:43:24;100917.66;;;4.89;65.22
77321;BME280;66382;52.252;8.780;2023-03-05T00:45:49;100921.00;;;4.91;64.63
77321;BME280;66382;52.252;8.780;2023-03-05T00:48:15;100910.97;;;4.85;64.94
77321;BME280;66382;52.252;8.780;2023-03-05T00:50:41;100914.84;;;4.90;64.72
77321;BME280;66382;52.252;8.780;2023-03-05T00:53:08;100914.03;;;4.90;64.69
77321;BME280;66382;52.252;8.780;2023-03-05T00:55:34;100916.53;;;4.91;64.41
77321;BME280;66382;52.252;8.780;2023-03-05T00:57:59;100917.34;;;4.92;64.80
77321;BME280;66382;52.252;8.780;2023-03-05T01:00:25;100865.94;;;4.73;65.13
77321;BME280;66382;52.252;8.780;2023-03-05T01:02:51;100892.50;;;4.83;64.88
77321;BME280;66382;52.252;8.780;2023-03-05T01:05:17;100890.13;;;4.90;64.76
77321;BME280;66382;52.252;8.780;2023-03-05T01:07:42;100890.94;;;4.90;63.94
77321;BME280;66382;52.252;8.780;2023-03-05T01:10:10;100864.28;;;4.72;64.57
77321;BME280;66382;52.252;8.780;2023-03-05T01:12:36;100876.28;;;4.77;65.00
77321;BME280;66382;52.252;8.780;2023-03-05T01:15:03;100878.50;;;4.81;64.71
77321;BME280;66382;52.252;8.780;2023-03-05T01:17:29;100881.47;;;4.78;65.06
77321;BME280;66382;52.252;8.780;2023-03-05T01:19:55;100872.66;;;4.78;65.07
77321;BME280;66382;52.252;8.780;2023-03-05T01:22:20;100865.25;;;4.71;65.27
77321;BME280;66382;52.252;8.780;2023-03-05T01:24:46;100867.19;;;4.79;65.06
77321;BME280;66382;52.252;8.780;2023-03-05T01:27:13;100862.69;;;4.80;65.57
77321;BME280;66382;52.252;8.780;2023-03-05T01:29:39;100859.22;;;4.79;64.93
77321;BME280;66382;52.252;8.780;2023-03-05T01:32:05;100841.63;;;4.68;65.64
77321;BME280;66382;52.252;8.780;2023-03-05T01:34:31;100854.19;;;4.76;65.41
77321;BME280;66382;52.252;8.780;2023-03-05T01:36:56;100854.91;;;4.78;65.01
77321;BME280;66382;52.252;8.780;2023-03-05T01:39:22;100848.59;;;4.79;65.04
77321;BME280;66382;52.252;8.780;2023-03-05T01:41:48;100835.06;;;4.72;65.20
77321;BME280;66382;52.252;8.780;2023-03-05T01:44:22;100845.09;;;4.79;64.80
77321;BME280;66382;52.252;8.780;2023-03-05T01:46:48;100842.56;;;4.77;65.17
77321;BME280;66382;52.252;8.780;2023-03-05T01:49:20;100815.78;;;4.61;65.00
77321;BME280;66382;52.252;8.780;2023-03-05T01:51:52;100834.78;;;4.76;65.20
77321;BME280;66382;52.252;8.780;2023-03-05T01:54:21;100836.44;;;4.77;65.25
77321;BME280;66382;52.252;8.780;2023-03-05T01:56:50;100829.59;;;4.74;65.43
77321;BME280;66382;52.252;8.780;2023-03-05T01:59:17;100825.97;;;4.75;65.95
77321;BME280;66382;52.252;8.780;2023-03-05T02:01:47;100814.38;;;4.66;65.12
77321;BME280;66382;52.252;8.780;2023-03-05T02:04:17;100822.22;;;4.68;65.80
77321;BME280;66382;52.252;8.780;2023-03-05T02:06:44;100823.56;;;4.72;65.58
77321;BME280;66382;52.252;8.780;2023-03-05T02:09:10;100822.63;;;4.73;65.25
77321;BME280;66382;52.252;8.780;2023-03-05T02:11:36;100819.25;;;4.71;65.74
77321;BME280;66382;52.252;8.780;2023-03-05T02:14:02;100826.53;;;4.69;65.71
77321;BME280;66382;52.252;8.780;2023-03-05T02:16:28;100815.91;;;4.69;65.50
77321;BME280;66382;52.252;8.780;2023-03-05T02:18:56;100811.41;;;4.69;65.54
77321;BME280;66382;52.252;8.780;2023-03-05T02:21:36;100809.63;;;4.70;65.24
77321;BME280;66382;52.252;8.780;2023-03-05T02:24:03;100787.84;;;4.57;65.90
77321;BME280;66382;52.252;8.780;2023-03-05T02:26:29;100800.66;;;4.71;65.81
77321;BME280;66382;52.252;8.780;2023-03-05T02:28:57;100794.66;;;4.69;65.39
77321;BME280;66382;52.252;8.780;2023-03-05T02:31:25;100792.84;;;4.69;65.46
77321;BME280;66382;52.252;8.780;2023-03-05T02:33:52;100794.66;;;4.69;65.64
77321;BME280;66382;52.252;8.780;2023-03-05T02:36:18;100755.97;;;4.57;65.79
77321;BME280;66382;52.252;8.780;2023-03-05T02:38:46;100780.25;;;4.71;66.29
77321;BME280;66382;52.252;8.780;2023-03-05T02:41:12;100778.28;;;4.73;66.01
77321;BME280;66382;52.252;8.780;2023-03-05T02:43:38;100774.81;;;4.73;65.56
77321;BME280;66382;52.252;8.780;2023-03-05T02:46:04;100759.72;;;4.64;65.59
77321;BME280;66382;52.252;8.780;2023-03-05T02:48:30;100762.66;;;4.70;66.07
77321;BME280;66382;52.252;8.780;2023-03-05T02:50:56;100767.38;;;4.77;66.21
77321;BME280;66382;52.252;8.780;2023-03-05T02:53:22;100766.53;;;4.76;65.81
77321;BME280;66382;52.252;8.780;2023-03-05T02:55:49;100753.41;;;4.65;65.98
77321;BME280;66382;52.252;8.780;2023-03-05T02:58:15;100760.25;;;4.77;65.86
77321;BME280;66382;52.252;8.780;2023-03-05T03:00:41;100741.41;;;4.70;66.12
77321;BME280;66382;52.252;8.780;2023-03-05T03:03:07;100751.31;;;4.78;65.71
77321;BME280;66382;52.252;8.780;2023-03-05T03:05:34;100736.41;;;4.67;65.92
77321;BME280;66382;52.252;8.780;2023-03-05T03:07:59;100724.38;;;4.63;65.75
77321;BME280;66382;52.252;8.780;2023-03-05T03:10:25;100742.50;;;4.78;65.68
77321;BME280;66382;52.252;8.780;2023-03-05T03:12:52;100739.97;;;4.76;65.94
77321;BME280;66382;52.252;8.780;2023-03-05T03:15:18;100727.56;;;4.67;65.77
77321;BME280;66382;52.252;8.780;2023-03-05T03:17:44;100736.78;;;4.72;65.81
77321;BME280;66382;52.252;8.780;2023-03-05T03:20:13;100718.38;;;4.61;66.30
77321;BME280;66382;52.252;8.780;2023-03-05T03:22:39;100724.47;;;4.71;66.15
77321;BME280;66382;52.252;8.780;2023-03-05T03:25:06;100732.44;;;4.71;66.24
77321;BME280;66382;52.252;8.780;2023-03-05T03:27:32;100713.06;;;4.61;66.28
77321;BME280;66382;52.252;8.780;2023-03-05T03:29:59;100706.75;;;4.62;65.84
77321;BME280;66382;52.252;8.780;2023-03-05T03:32:25;100727.00;;;4.73;65.68
77321;BME280;66382;52.252;8.780;2023-03-05T03:34:51;100719.03;;;4.73;66.45
77321;BME280;66382;52.252;8.780;2023-03-05T03:37:16;100714.84;;;4.70;65.86
77321;BME280;66382;52.252;8.780;2023-03-05T03:39:42;100692.94;;;4.59;65.46
77321;BME280;66382;52.252;8.780;2023-03-05T03:42:08;100722.53;;;4.73;65.69
77321;BME280;66382;52.252;8.780;2023-03-05T03:44:33;100680.25;;;4.52;65.63
77321;BME280;66382;52.252;8.780;2023-03-05T03:47:00;100711.38;;;4.70;66.00
77321;BME280;66382;52.252;8.780;2023-03-05T03:49:26;100702.13;;;4.64;66.07
77321;BME280;66382;52.252;8.780;2023-03-05T03:51:52;100688.47;;;4.59;66.19
77321;BME280;66382;52.252;8.780;2023-03-05T03:54:18;100688.59;;;4.67;66.02
77321;BME280;66382;52.252;8.780;2023-03-05T03:56:45;100697.91;;;4.71;65.36
77321;BME280;66382;52.252;8.780;2023-03-05T03:59:11;100684.38;;;4.65;65.82
77321;BME280;66382;52.252;8.780;2023-03-05T04:01:37;100696.25;;;4.70;65.94
77321;BME280;66382;52.252;8.780;2023-03-05T04:04:05;100688.28;;;4.70;66.07
77321;BME280;66382;52.252;8.780;2023-03-05T04:06:31;100682.97;;;4.70;65.84
77321;BME280;66382;52.252;8.780;2023-03-05T04:08:57;100671.84;;;4.57;65.78
77321;BME280;66382;52.252;8.780;2023-03-05T04:11:23;100673.91;;;4.63;66.15
77321;BME280;66382;52.252;8.780;2023-03-05T04:13:49;100657.47;;;4.50;65.95
77321;BME280;66382;52.252;8.780;2023-03-05T04:16:15;100651.63;;;4.46;65.72
77321;BME280;66382;52.252;8.780;2023-03-05T04:18:41;100675.59;;;4.64;66.39
77321;BME280;66382;52.252;8.780;2023-03-05T04:21:09;100671.66;;;4.68;65.46
77321;BME280;66382;52.252;8.780;2023-03-05T04:23:34;100672.34;;;4.70;66.07
77321;BME280;66382;52.252;8.780;2023-03-05T04:26:00;100676.66;;;4.71;65.92
77321;BME280;66382;52.252;8.780;2023-03-05T04:28:26;100661.88;;;4.69;65.38
77321;BME280;66382;52.252;8.780;2023-03-05T04:30:52;100663.00;;;4.66;65.32
77321;BME280;66382;52.252;8.780;2023-03-05T04:33:18;100663.00;;;4.66;65.85
77321;BME280;66382;52.252;8.780;2023-03-05T04:35:44;100648.94;;;4.56;65.95
77321;BME280;66382;52.252;8.780;2023-03-05T04:38:11;100626.72;;;4.47;65.61
77321;BME280;66382;52.252;8.780;2023-03-05T04:40:37;100638.31;;;4.56;65.94
77321;BME280;66382;52.252;8.780;2023-03-05T04:43:04;100655.03;;;4.66;66.12
77321;BME280;66382;52.252;8.780;2023-03-05T04:45:30;100634.00;;;4.55;65.75
77321;BME280;66382;52.252;8.780;2023-03-05T04:47:56;100617.28;;;4.35;65.61
77321;BME280;66382;52.252;8.780;2023-03-05T04:50:21;100633.44;;;4.51;65.81
77321;BME280;66382;52.252;8.780;2023-03-05T04:52:47;100647.91;;;4.67;65.85
77321;BME280;66382;52.252;8.780;2023-03-05T04:55:15;100621.97;;;4.51;65.79
77321;BME280;66382;52.252;8.780;2023-03-05T04:57:42;100650.41;;;4.68;65.92
77321;BME280;66382;52.252;8.780;2023-03-05T05:00:10;100623.59;;;4.62;65.97
77321;BME280;66382;52.252;8.780;2023-03-05T05:02:36;100650.28;;;4.70;65.26
77321;BME280;66382;52.252;8.780;2023-03-05T05:05:02;100649.41;;;4.69;65.36
77321;BME280;66382;52.252;8.780;2023-03-05T05:07:28;100643.16;;;4.70;65.92
77321;BME280;66382;52.252;8.780;2023-03-05T05:09:53;100630.88;;;4.60;65.81
77321;BME280;66382;52.252;8.780;2023-03-05T05:12:21;100637.00;;;4.70;66.41
77321;BME280;66382;52.252;8.780;2023-03-05T05:14:46;100642.00;;;4.73;65.49
77321;BME280;66382;52.252;8.780;2023-03-05T05:17:12;100630.56;;;4.72;66.24
77321;BME280;66382;52.252;8.780;2023-03-05T05:19:38;100637.84;;;4.70;65.58
77321;BME280;66382;52.252;8.780;2023-03-05T05:22:03;100626.38;;;4.70;65.60
77321;BME280;66382;52.252;8.780;2023-03-05T05:24:29;100628.03;;;4.71;65.84
77321;BME280;66382;52.252;8.780;2023-03-05T05:26:55;100631.38;;;4.73;66.24
77321;BME280;66382;52.252;8.780;2023-03-05T05:29:22;100626.09;;;4.73;65.68
77321;BME280;66382;52.252;8.780;2023-03-05T05:31:48;100611.03;;;4.64;66.34
77321;BME280;66382;52.252;8.780;2023-03-05T05:34:14;100612.53;;;4.66;65.89
77321;BME280;66382;52.252;8.780;2023-03-05T05:36:40;100594.00;;;4.57;65.69
77321;BME280;66382;52.252;8.780;2023-03-05T05:39:06;100620.38;;;4.68;65.72
77321;BME280;66382;52.252;8.780;2023-03-05T05:41:32;100603.53;;;4.49;66.23
77321;BME280;66382;52.252;8.780;2023-03-05T05:43:57;100621.38;;;4.57;66.44
77321;BME280;66382;52.252;8.780;2023-03-05T05:46:24;100633.25;;;4.63;66.08
77321;BME280;66382;52.252;8.780;2023-03-05T05:48:50;100613.19;;;4.50;66.33
77321;BME280;66382;52.252;8.780;2023-03-05T05:51:18;100601.09;;;4.38;66.25
77321;BME280;66382;52.252;8.780;2023-03-05T05:53:44;100626.31;;;4.52;66.64
77321;BME280;66382;52.252;8.780;2023-03-05T05:56:11;100599.69;;;4.34;66.70
77321;BME280;66382;52.252;8.780;2023-03-05T05:58:38;100599.81;;;4.32;66.63
77321;BME280;66382;52.252;8.780;2023-03-05T06:01:11;100617.25;;;4.45;66.47
77321;BME280;66382;52.252;8.780;2023-03-05T06:03:38;100587.44;;;4.23;66.68
77321;BME280;66382;52.252;8.780;2023-03-05T06:06:07;100614.88;;;4.42;66.79
77321;BME280;66382;52.252;8.780;2023-03-05T06:08:33;100619.81;;;4.37;65.92
77321;BME280;66382;52.252;8.780;2023-03-05T06:10:59;100617.56;;;4.32;66.23
77321;BME280;66382;52.252;8.780;2023-03-05T06:13:25;100599.44;;;4.27;66.42
77321;BME280;66382;52.252;8.780;2023-03-05T06:15:55;100612.13;;;4.34;65.99
77321;BME280;66382;52.252;8.780;2023-03-05T06:18:21;100617.72;;;4.40;67.05
77321;BME280;66382;52.252;8.780;2023-03-05T06:20:54;100616.41;;;4.44;66.26
77321;BME280;66382;52.252;8.780;2023-03-05T06:23:20;100619.91;;;4.45;66.42
77321;BME280;66382;52.252;8.780;2023-03-05T06:25:46;100605.69;;;4.36;66.80
77321;BME280;66382;52.252;8.780;2023-03-05T06:28:11;100589.22;;;4.32;66.42
77321;BME280;66382;52.252;8.780;2023-03-05T06:30:37;100619.47;;;4.49;67.16
77321;BME280;66382;52.252;8.780;2023-03-05T06:33:03;100623.66;;;4.52;67.35
77321;BME280;66382;52.252;8.780;2023-03-05T06:35:28;100617.50;;;4.51;67.36
77321;BME280;66382;52.252;8.780;2023-03-05T06:37:56;100600.19;;;4.47;66.72
77321;BME280;66382;52.252;8.780;2023-03-05T06:40:21;100612.19;;;4.51;66.48
77321;BME280;66382;52.252;8.780;2023-03-05T06:42:47;100612.34;;;4.50;66.81
77321;BME280;66382;52.252;8.780;2023-03-05T06:45:13;100598.25;;;4.40;66.84
77321;BME280;66382;52.252;8.780;2023-03-05T06:47:39;100583.78;;;4.34;66.91
77321;BME280;66382;52.252;8.780;2023-03-05T06:50:05;100597.44;;;4.39;67.06
77321;BME280;66382;52.252;8.780;2023-03-05T06:52:31;100616.41;;;4.44;67.03
77321;BME280;66382;52.252;8.780;2023-03-05T06:54:58;100601.34;;;4.35;67.89
77321;BME280;66382;52.252;8.780;2023-03-05T06:57:24;100600.25;;;4.38;66.98
77321;BME280;66382;52.252;8.780;2023-03-05T06:59:50;100609.59;;;4.42;67.27
77321;BME280;66382;52.252;8.780;2023-03-05T07:02:16;100609.75;;;4.40;66.96
77321;BME280;66382;52.252;8.780;2023-03-05T07:04:41;100601.63;;;4.42;67.28
77321;BME280;66382;52.252;8.780;2023-03-05T07:07:07;100602.31;;;4.44;66.73
77321;BME280;66382;52.252;8.780;2023-03-05T07:09:33;100597.53;;;4.47;67.26
77321;BME280;66382;52.252;8.780;2023-03-05T07:12:00;100602.41;;;4.52;66.77
77321;BME280;66382;52.252;8.780;2023-03-05T07:14:26;100596.56;;;4.48;67.26
77321;BME280;66382;52.252;8.780;2023-03-05T07:16:51;100597.41;;;4.49;66.52
77321;BME280;66382;52.252;8.780;2023-03-05T07:19:17;100596.00;;;4.45;67.02
77321;BME280;66382;52.252;8.780;2023-03-05T07:21:43;100597.09;;;4.52;67.56
77321;BME280;66382;52.252;8.780;2023-03-05T07:24:11;100596.13;;;4.53;67.12
77321;BME280;66382;52.252;8.780;2023-03-05T07:26:37;100598.63;;;4.55;67.22
77321;BME280;66382;52.252;8.780;2023-03-05T07:29:04;100590.66;;;4.55;67.72
77321;BME280;66382;52.252;8.780;2023-03-05T07:31:30;100596.91;;;4.63;67.28
77321;BME280;66382;52.252;8.780;2023-03-05T07:33:56;100592.81;;;4.69;67.66
77321;BME280;66382;52.252;8.780;2023-03-05T07:36:23;100592.38;;;4.73;67.36
77321;BME280;66382;52.252;8.780;2023-03-05T07:38:48;100594.75;;;4.77;66.95
77321;BME280;66382;52.252;8.780;2023-03-05T07:41:17;100591.13;;;4.78;67.13
77321;BME280;66382;52.252;8.780;2023-03-05T07:43:43;100594.44;;;4.80;66.87
77321;BME280;66382;52.252;8.780;2023-03-05T07:46:13;100593.47;;;4.81;67.36
77321;BME280;66382;52.252;8.780;2023-03-05T07:48:39;100596.81;;;4.83;66.73
77321;BME280;66382;52.252;8.780;2023-03-05T07:51:07;100583.53;;;4.83;66.20
77321;BME280;66382;52.252;8.780;2023-03-05T07:53:33;100587.31;;;4.80;66.60
77321;BME280;66382;52.252;8.780;2023-03-05T07:55:59;100582.16;;;4.79;66.85
77321;BME280;66382;52.252;8.780;2023-03-05T07:58:25;100583.53;;;4.83;67.22
77321;BME280;66382;52.252;8.780;2023-03-05T08:00:51;100589.06;;;4.89;67.47
77321;BME280;66382;52.252;8.780;2023-03-05T08:03:18;100586.66;;;4.96;66.72
77321;BME280;66382;52.252;8.780;2023-03-05T08:05:44;100585.38;;;5.00;66.87
77321;BME280;66382;52.252;8.780;2023-03-05T08:08:10;100578.63;;;5.06;66.54
77321;BME280;66382;52.252;8.780;2023-03-05T08:10:36;100583.78;;;5.07;67.29
77321;BME280;66382;52.252;8.780;2023-03-05T08:13:03;100577.47;;;5.08;66.77
77321;BME280;66382;52.252;8.780;2023-03-05T08:15:28;100582.66;;;5.10;66.89
77321;BME280;66382;52.252;8.780;2023-03-05T08:17:54;100582.47;;;5.11;66.64
77321;BME280;66382;52.252;8.780;2023-03-05T08:20:21;100585.84;;;5.13;66.52
77321;BME280;66382;52.252;8.780;2023-03-05T08:22:47;100576.19;;;5.12;66.33
77321;BME280;66382;52.252;8.780;2023-03-05T08:25:13;100564.81;;;5.02;66.23
77321;BME280;66382;52.252;8.780;2023-03-05T08:27:39;100575.06;;;5.15;66.78
77321;BME280;66382;52.252;8.780;2023-03-05T08:30:07;100567.47;;;5.20;66.37
77321;BME280;66382;52.252;8.780;2023-03-05T08:32:33;100560.09;;;5.32;66.34
77321;BME280;66382;52.252;8.780;2023-03-05T08:34:58;100564.34;;;5.43;66.41
77321;BME280;66382;52.252;8.780;2023-03-05T08:37:25;100556.78;;;5.56;66.69
77321;BME280;66382;52.252;8.780;2023-03-05T08:39:51;100555.63;;;5.76;67.05
77321;BME280;66382;52.252;8.780;2023-03-05T08:42:17;100565.09;;;5.97;67.03
77321;BME280;66382;52.252;8.780;2023-03-05T08:44:43;100558.34;;;6.11;66.68
77321;BME280;66382;52.252;8.780;2023-03-05T08:47:08;100561.22;;;6.17;66.14
77321;BME280;66382;52.252;8.780;2023-03-05T08:49:34;100557.41;;;6.20;65.40
77321;BME280;66382;52.252;8.780;2023-03-05T08:52:00;100554.72;;;6.20;65.63
77321;BME280;66382;52.252;8.780;2023-03-05T08:54:27;100547.44;;;6.22;66.06
77321;BME280;66382;52.252;8.780;2023-03-05T08:56:52;100537.25;;;6.17;66.14
77321;BME280;66382;52.252;8.780;2023-03-05T08:59:18;100559.25;;;6.28;65.72
77321;BME280;66382;52.252;8.780;2023-03-05T09:01:44;100554.66;;;6.38;66.01
77321;BME280;66382;52.252;8.780;2023-03-05T09:04:10;100556.41;;;6.55;65.68
77321;BME280;66382;52.252;8.780;2023-03-05T09:06:35;100556.78;;;6.68;65.26
77321;BME280;66382;52.252;8.780;2023-03-05T09:09:01;100542.63;;;6.68;64.82
77321;BME280;66382;52.252;8.780;2023-03-05T09:11:28;100551.13;;;6.72;64.22
77321;BME280;66382;52.252;8.780;2023-03-05T09:13:54;100545.50;;;6.91;65.34
77321;BME280;66382;52.252;8.780;2023-03-05T09:16:19;100539.34;;;6.99;65.17
77321;BME280;66382;52.252;8.780;2023-03-05T09:18:45;100536.69;;;6.99;64.32
77321;BME280;66382;52.252;8.780;2023-03-05T09:21:13;100541.72;;;7.10;64.94
77321;BME280;66382;52.252;8.780;2023-03-05T09:23:40;100540.38;;;7.22;64.68
77321;BME280;66382;52.252;8.780;2023-03-05T09:26:06;100538.84;;;7.69;65.20
77321;BME280;66382;52.252;8.780;2023-03-05T09:28:34;100537.31;;;7.91;63.50
77321;BME280;66382;52.252;8.780;2023-03-05T09:31:01;100537.81;;;7.94;63.16
77321;BME280;66382;52.252;8.780;2023-03-05T09:33:27;100535.00;;;7.88;62.22
77321;BME280;66382;52.252;8.780;2023-03-05T09:35:53;100534.66;;;7.83;62.55
77321;BME280;66382;52.252;8.780;2023-03-05T09:38:18;100523.66;;;7.78;62.06
77321;BME280;66382;52.252;8.780;2023-03-05T09:40:51;100523.31;;;7.97;63.81
77321;BME280;66382;52.252;8.780;2023-03-05T09:43:27;100519.72;;;8.13;63.81
77321;BME280;66382;52.252;8.780;2023-03-05T09:46:04;100522.09;;;8.16;63.43
77321;BME280;66382;52.252;8.780;2023-03-05T09:48:42;100524.75;;;8.16;62.78
77321;BME280;66382;52.252;8.780;2023-03-05T09:51:17;100517.56;;;8.08;63.37
77321;BME280;66382;52.252;8.780;2023-03-05T09:53:48;100518.81;;;7.89;61.71
77321;BME280;66382;52.252;8.780;2023-03-05T09:56:19;100519.34;;;7.77;62.18
77321;BME280;66382;52.252;8.780;2023-03-05T09:58:48;100517.00;;;7.73;61.91
77321;BME280;66382;52.252;8.780;2023-03-05T10:01:19;100512.16;;;7.77;63.17
77321;BME280;66382;52.252;8.780;2023-03-05T10:03:53;100515.81;;;7.76;62.23
77321;BME280;66382;52.252;8.780;2023-03-05T10:06:22;100498.69;;;7.62;62.43
77321;BME280;66382;52.252;8.780;2023-03-05T10:08:53;100511.84;;;7.64;62.91
77321;BME280;66382;52.252;8.780;2023-03-05T10:11:39;100504.69;;;7.56;62.47
77321;BME280;66382;52.252;8.780;2023-03-05T10:14:13;100509.53;;;7.52;62.25
77321;BME280;66382;52.252;8.780;2023-03-05T10:16:51;100503.34;;;7.60;62.33
77321;BME280;66382;52.252;8.780;2023-03-05T10:19:32;100506.16;;;7.75;63.83
77321;BME280;66382;52.252;8.780;2023-03-05T10:22:14;100501.13;;;7.96;63.05
77321;BME280;66382;52.252;8.780;2023-03-05T10:24:50;100488.03;;;8.10;62.63
77321;BME280;66382;52.252;8.780;2023-03-05T10:27:20;100491.84;;;8.15;61.56
77321;BME280;66382;52.252;8.780;2023-03-05T10:30:02;100497.38;;;8.14;62.39
77321;BME280;66382;52.252;8.780;2023-03-05T10:32:39;100494.22;;;8.10;61.16
77321;BME280;66382;52.252;8.780;2023-03-05T10:38:24;100492.34;;;8.19;63.06
77321;BME280;66382;52.252;8.780;2023-03-05T10:40:54;100487.44;;;8.39;63.20
77321;BME280;66382;52.252;8.780;2023-03-05T10:43:24;100491.03;;;8.54;62.02
77321;BME280;66382;52.252;8.780;2023-03-05T10:45:56;100482.47;;;8.90;61.92
77321;BME280;66382;52.252;8.780;2023-03-05T10:48:27;100470.22;;;9.19;61.71
77321;BME280;66382;52.252;8.780;2023-03-05T10:50:59;100470.94;;;9.51;60.69
77321;BME280;66382;52.252;8.780;2023-03-05T10:53:27;100467.25;;;9.81;59.83
77321;BME280;66382;52.252;8.780;2023-03-05T10:56:00;100466.03;;;9.99;60.80
77321;BME280;66382;52.252;8.780;2023-03-05T10:58:26;100459.13;;;10.04;58.17
77321;BME280;66382;52.252;8.780;2023-03-05T11:01:04;100449.97;;;9.84;58.89
77321;BME280;66382;52.252;8.780;2023-03-05T11:03:49;100450.56;;;9.64;59.61
77321;BME280;66382;52.252;8.780;2023-03-05T11:06:26;100458.25;;;9.44;59.20
77321;BME280;66382;52.252;8.780;2023-03-05T11:08:52;100447.06;;;9.26;58.43
77321;BME280;66382;52.252;8.780;2023-03-05T11:11:20;100440.34;;;9.30;59.18
77321;BME280;66382;52.252;8.780;2023-03-05T11:13:55;100421.13;;;9.12;59.58
77321;BME280;66382;52.252;8.780;2023-03-05T11:16:23;100440.78;;;9.19;59.11
77321;BME280;66382;52.252;8.780;2023-03-05T11:19:14;100435.72;;;9.24;59.90
77321;BME280;66382;52.252;8.780;2023-03-05T11:21:41;100437.97;;;9.35;58.38
77321;BME280;66382;52.252;8.780;2023-03-05T11:24:11;100428.81;;;9.44;58.57
77321;BME280;66382;52.252;8.780;2023-03-05T11:26:45;100421.44;;;9.46;56.81
77321;BME280;66382;52.252;8.780;2023-03-05T11:29:17;100423.94;;;9.33;58.03
77321;BME280;66382;52.252;8.780;2023-03-05T11:31:44;100410.63;;;9.10;56.55
77321;BME280;66382;52.252;8.780;2023-03-05T11:34:24;100416.22;;;9.00;58.36
77321;BME280;66382;52.252;8.780;2023-03-05T11:37:02;100410.16;;;8.83;58.25
77321;BME280;66382;52.252;8.780;2023-03-05T11:39:29;100412.97;;;8.67;57.71
77321;BME280;66382;52.252;8.780;2023-03-05T11:41:58;100413.25;;;8.49;58.21
77321;BME280;66382;52.252;8.780;2023-03-05T11:44:28;100407.38;;;8.54;58.81
77321;BME280;66382;52.252;8.780;2023-03-05T11:46:58;100406.13;;;8.65;58.86
77321;BME280;66382;52.252;8.780;2023-03-05T11:49:41;100398.78;;;8.67;57.60
77321;BME280;66382;52.252;8.780;2023-03-05T11:52:13;100394.44;;;8.66;57.55
77321;BME280;66382;52.252;8.780;2023-03-05T11:54:50;100389.44;;;8.63;57.45
77321;BME280;66382;52.252;8.780;2023-03-05T11:57:20;100390.22;;;8.48;57.42
77321;BME280;66382;52.252;8.780;2023-03-05T11:59:48;100390.13;;;8.33;56.70
77321;BME280;66382;52.252;8.780;2023-03-05T12:02:18;100356.38;;;8.09;56.90
77321;BME280;66382;52.252;8.780;2023-03-05T12:04:47;100370.13;;;8.29;57.71
77321;BME280;66382;52.252;8.780;2023-03-05T12:07:16;100362.88;;;8.38;57.32
77321;BME280;66382;52.252;8.780;2023-03-05T12:09:46;100360.47;;;8.51;57.73
77321;BME280;66382;52.252;8.780;2023-03-05T12:12:25;100353.41;;;8.58;57.40
77321;BME280;66382;52.252;8.780;2023-03-05T12:14:59;100351.50;;;8.67;58.30
77321;BME280;66382;52.252;8.780;2023-03-05T12:17:29;100346.56;;;8.79;57.56
77321;BME280;66382;52.252;8.780;2023-03-05T12:20:00;100342.53;;;8.98;58.40
77321;BME280;66382;52.252;8.780;2023-03-05T12:22:33;100338.59;;;9.09;57.88
77321;BME280;66382;52.252;8.780;2023-03-05T12:25:24;100344.59;;;9.11;58.59
77321;BME280;66382;52.252;8.780;2023-03-05T12:27:50;100334.06;;;9.09;57.13
77321;BME280;66382;52.252;8.780;2023-03-05T12:33:32;100327.50;;;9.12;57.64
77321;BME280;66382;52.252;8.780;2023-03-05T12:36:37;100325.66;;;9.27;58.86
77321;BME280;66382;52.252;8.780;2023-03-05T12:42:39;100326.59;;;9.34;58.31
77321;BME280;66382;52.252;8.780;2023-03-05T12:45:37;100300.38;;;9.44;58.03
77321;BME280;66382;52.252;8.780;2023-03-05T12:48:41;100305.38;;;9.47;57.12
77321;BME280;66382;52.252;8.780;2023-03-05T12:51:12;100301.59;;;9.42;57.19
77321;BME280;66382;52.252;8.780;2023-03-05T12:53:39;100304.00;;;9.37;56.82
77321;BME280;66382;52.252;8.780;2023-03-05T12:56:13;100304.66;;;9.24;56.56
77321;BME280;66382;52.252;8.780;2023-03-05T12:58:42;100297.44;;;9.10;54.86
77321;BME280;66382;52.252;8.780;2023-03-05T13:01:37;100299.50;;;8.93;54.87
77321;BME280;66382;52.252;8.780;2023-03-05T13:04:13;100293.75;;;8.81;56.55
77321;BME280;66382;52.252;8.780;2023-03-05T13:06:40;100279.28;;;8.75;58.24
77321;BME280;66382;52.252;8.780;2023-03-05T13:09:15;100280.81;;;8.70;57.27
77321;BME280;66382;52.252;8.780;2023-03-05T13:11:44;100277.31;;;8.69;56.63
77321;BME280;66382;52.252;8.780;2023-03-05T13:14:33;100274.19;;;8.66;57.67
77321;BME280;66382;52.252;8.780;2023-03-05T13:17:00;100273.91;;;8.60;56.04